createdAt,value
2019-03-13T00:01:40.201Z,99187.00
2019-03-13T00:04:13.027Z,99191.00
2019-03-13T00:06:45.861Z,99191.00
2019-03-13T00:09:18.699Z,99225.00
2019-03-13T00:11:51.599Z,99243.00
2019-03-13T00:14:24.491Z,99236.00
2019-03-13T00:16:57.386Z,99239.00
2019-03-13T00:19:30.261Z,99252.00
2019-03-13T00:22:05.653Z,99245.00
2019-03-13T00:24:38.614Z,99253.00
2019-03-13T00:27:11.476Z,99261.00
2019-03-13T00:29:44.360Z,99257.00
2019-03-13T00:32:17.176Z,99274.00
2019-03-13T00:34:50.152Z,99288.00
2019-03-13T00:37:23.949Z,99295.00
2019-03-13T00:39:56.790Z,99300.00
2019-03-13T00:42:30.009Z,99320.00
2019-03-13T00:45:03.542Z,99319.00
2019-03-13T00:47:36.604Z,99318.00
2019-03-13T00:50:20.612Z,99321.00
2019-03-13T00:52:53.670Z,99324.00
2019-03-13T00:55:26.554Z,99331.00
2019-03-13T00:57:59.494Z,99332.00
2019-03-13T01:00:50.567Z,99326.00
2019-03-13T01:03:43.104Z,99335.00
2019-03-13T01:06:35.656Z,99328.00
2019-03-13T01:09:08.573Z,99340.00
2019-03-13T01:11:41.376Z,99337.00
2019-03-13T01:14:14.213Z,99344.00
2019-03-13T01:16:47.030Z,99358.00
2019-03-13T01:19:19.900Z,99357.00
2019-03-13T01:21:52.844Z,99356.00
2019-03-13T01:24:25.704Z,99338.00
2019-03-13T01:26:58.552Z,99347.00
2019-03-13T01:29:31.454Z,99349.00
2019-03-13T01:32:30.370Z,99358.00
2019-03-13T01:35:16.043Z,99358.00
2019-03-13T01:37:49.061Z,99356.00
2019-03-13T01:40:21.889Z,99351.00
2019-03-13T01:42:54.701Z,99358.00
2019-03-13T01:45:27.814Z,99366.00
2019-03-13T01:48:00.641Z,99378.00
2019-03-13T01:50:33.515Z,99384.00
2019-03-13T01:53:06.403Z,99386.00
2019-03-13T01:55:39.340Z,99390.00
2019-03-13T01:58:12.221Z,99402.00
2019-03-13T02:00:45.023Z,99413.00
2019-03-13T02:03:17.916Z,99423.00
2019-03-13T02:05:50.818Z,99437.00
2019-03-13T02:08:24.948Z,99433.00
2019-03-13T02:10:57.845Z,99439.00
2019-03-13T02:13:30.884Z,99438.00
2019-03-13T02:16:04.906Z,99441.00
2019-03-13T02:18:37.763Z,99443.00
2019-03-13T02:21:10.551Z,99445.00
2019-03-13T02:23:43.425Z,99447.00
2019-03-13T02:26:16.217Z,99454.00
2019-03-13T02:28:49.080Z,99465.00
2019-03-13T02:31:21.925Z,99448.00
2019-03-13T02:33:54.832Z,99453.00
2019-03-13T02:36:27.699Z,99457.00
2019-03-13T02:39:00.546Z,99454.00
2019-03-13T02:41:33.456Z,99446.00
2019-03-13T02:44:06.337Z,99454.00
2019-03-13T02:46:39.162Z,99457.00
2019-03-13T02:49:11.975Z,99452.00
2019-03-13T02:51:45.001Z,99454.00
2019-03-13T02:54:17.968Z,99454.00
2019-03-13T02:56:50.855Z,99455.00
2019-03-13T02:59:23.744Z,99458.00
2019-03-13T03:02:13.291Z,99451.00
2019-03-13T03:04:46.134Z,99446.00
2019-03-13T03:07:18.970Z,99442.00
2019-03-13T03:09:51.828Z,99431.00
2019-03-13T03:12:24.755Z,99446.00
2019-03-13T03:15:03.625Z,99454.00
2019-03-13T03:17:37.016Z,99448.00
2019-03-13T03:20:13.388Z,99442.00
2019-03-13T03:22:46.291Z,99455.00
2019-03-13T03:25:19.088Z,99442.00
2019-03-13T03:27:51.880Z,99452.00
2019-03-13T03:30:24.868Z,99439.00
2019-03-13T03:32:57.704Z,99442.00
2019-03-13T03:35:30.643Z,99438.00
2019-03-13T03:38:03.665Z,99439.00
2019-03-13T03:40:36.629Z,99435.00
2019-03-13T03:43:09.462Z,99422.00
2019-03-13T03:45:42.281Z,99425.00
2019-03-13T03:48:15.119Z,99425.00
2019-03-13T03:50:48.190Z,99437.00
2019-03-13T03:53:21.156Z,99432.00
2019-03-13T03:55:55.330Z,99429.00
2019-03-13T03:58:29.642Z,99425.00
2019-03-13T04:01:03.228Z,99418.00
2019-03-13T04:03:37.642Z,99433.00
2019-03-13T04:06:11.149Z,99437.00
2019-03-13T04:08:44.122Z,99452.00
2019-03-13T04:11:17.075Z,99452.00
2019-03-13T04:13:50.145Z,99454.00
2019-03-13T04:16:23.055Z,99462.00
2019-03-13T04:18:56.107Z,99468.00
2019-03-13T04:21:29.136Z,99468.00
2019-03-13T04:24:01.981Z,99466.00
2019-03-13T04:26:34.831Z,99467.00
2019-03-13T04:29:07.874Z,99470.00
2019-03-13T04:31:40.851Z,99483.00
2019-03-13T04:34:14.106Z,99473.00
2019-03-13T04:36:46.921Z,99477.00
2019-03-13T04:39:19.787Z,99479.00
2019-03-13T04:41:52.663Z,99473.00
2019-03-13T04:44:26.335Z,99481.00
2019-03-13T04:46:59.194Z,99477.00
2019-03-13T04:49:32.025Z,99471.00
2019-03-13T04:52:06.646Z,99472.00
2019-03-13T04:54:39.494Z,99465.00
2019-03-13T04:57:12.346Z,99449.00
2019-03-13T04:59:45.156Z,99455.00
2019-03-13T05:02:17.960Z,99450.00
2019-03-13T05:04:50.785Z,99446.00
2019-03-13T05:07:23.602Z,99444.00
2019-03-13T05:09:56.512Z,99443.00
2019-03-13T05:12:29.383Z,99454.00
2019-03-13T05:15:02.246Z,99449.00
2019-03-13T05:17:35.320Z,99453.00
2019-03-13T05:20:08.144Z,99454.00
2019-03-13T05:22:40.989Z,99457.00
2019-03-13T05:25:13.824Z,99458.00
2019-03-13T05:27:46.671Z,99468.00
2019-03-13T05:30:19.521Z,99468.00
2019-03-13T05:32:52.379Z,99477.00
2019-03-13T05:35:25.235Z,99474.00
2019-03-13T05:37:59.164Z,99469.00
2019-03-13T05:40:32.011Z,99466.00
2019-03-13T05:43:04.815Z,99467.00
2019-03-13T05:45:37.705Z,99479.00
2019-03-13T05:48:10.576Z,99474.00
2019-03-13T05:50:44.519Z,99481.00
2019-03-13T05:53:17.382Z,99490.00
2019-03-13T05:55:50.232Z,99488.00
2019-03-13T05:58:23.111Z,99487.00
2019-03-13T06:00:56.168Z,99481.00
2019-03-13T06:03:29.032Z,99484.00
2019-03-13T06:06:01.893Z,99478.00
2019-03-13T06:08:34.683Z,99474.00
2019-03-13T06:11:07.518Z,99488.00
2019-03-13T06:13:40.364Z,99490.00
2019-03-13T06:16:13.211Z,99493.00
2019-03-13T06:18:46.105Z,99480.00
2019-03-13T06:21:18.978Z,99486.00
2019-03-13T06:23:51.787Z,99479.00
2019-03-13T06:26:24.770Z,99492.00
2019-03-13T06:28:57.570Z,99493.00
2019-03-13T06:31:30.546Z,99491.00
2019-03-13T06:34:03.387Z,99493.00
2019-03-13T06:36:37.351Z,99503.00
2019-03-13T06:39:10.188Z,99490.00
2019-03-13T06:41:43.176Z,99506.00
2019-03-13T06:44:16.001Z,99495.00
2019-03-13T06:46:48.882Z,99500.00
2019-03-13T06:49:21.646Z,99493.00
2019-03-13T06:51:54.467Z,99512.00
2019-03-13T06:54:27.427Z,99527.00
2019-03-13T06:57:00.254Z,99507.00
2019-03-13T06:59:51.331Z,99508.00
2019-03-13T07:02:30.684Z,99500.00
2019-03-13T07:05:16.661Z,99493.00
2019-03-13T07:07:55.212Z,99500.00
2019-03-13T07:10:47.684Z,99492.00
2019-03-13T07:13:40.131Z,99484.00
2019-03-13T07:16:30.273Z,99503.00
2019-03-13T07:19:24.327Z,99496.00
2019-03-13T07:22:06.168Z,99518.00
2019-03-13T07:25:01.629Z,99513.00
2019-03-13T07:28:03.109Z,99517.00
2019-03-13T07:30:47.183Z,99519.00
2019-03-13T07:33:38.583Z,99516.00
2019-03-13T07:36:31.073Z,99510.00
2019-03-13T07:39:27.536Z,99510.00
2019-03-13T07:42:11.105Z,99516.00
2019-03-13T07:45:01.845Z,99515.00
2019-03-13T07:47:55.430Z,99508.00
2019-03-13T07:50:36.932Z,99508.00
2019-03-13T07:53:29.413Z,99501.00
2019-03-13T07:56:36.818Z,99502.00
2019-03-13T07:59:34.960Z,99498.00
2019-03-13T08:02:21.425Z,99515.00
2019-03-13T08:05:12.655Z,99510.00
2019-03-13T08:08:07.792Z,99499.00
2019-03-13T08:11:07.801Z,99497.00
2019-03-13T08:13:58.322Z,99502.00
2019-03-13T08:16:42.607Z,99508.00
2019-03-13T08:19:26.123Z,99499.00
2019-03-13T08:22:16.716Z,99491.00
2019-03-13T08:25:20.831Z,99513.00
2019-03-13T08:28:12.093Z,99510.00
2019-03-13T08:31:03.353Z,99510.00
2019-03-13T08:34:12.595Z,99523.00
2019-03-13T08:36:52.867Z,99505.00
2019-03-13T08:39:33.519Z,99511.00
2019-03-13T08:42:28.695Z,99509.00
2019-03-13T08:45:17.952Z,99490.00
2019-03-13T08:48:13.466Z,99510.00
2019-03-13T08:50:59.494Z,99517.00
2019-03-13T08:53:56.195Z,99500.00
2019-03-13T08:56:41.965Z,99514.00
2019-03-13T08:59:33.127Z,99512.00
2019-03-13T09:02:22.474Z,99502.00
2019-03-13T09:05:06.064Z,99520.00
2019-03-13T09:07:56.947Z,99509.00
2019-03-13T09:10:48.022Z,99510.00
2019-03-13T09:13:36.849Z,99510.00
2019-03-13T09:16:35.432Z,99506.00
2019-03-13T09:19:30.656Z,99490.00
2019-03-13T09:22:22.547Z,99482.00
2019-03-13T09:25:15.175Z,99469.00
2019-03-13T09:28:08.727Z,99476.00
2019-03-13T09:31:03.779Z,99466.00
2019-03-13T09:33:54.422Z,99477.00
2019-03-13T09:36:33.858Z,99469.00
2019-03-13T09:39:29.785Z,99496.00
2019-03-13T09:42:20.838Z,99493.00
2019-03-13T09:45:13.289Z,99501.00
2019-03-13T09:48:04.433Z,99490.00
2019-03-13T09:50:48.044Z,99496.00
2019-03-13T09:53:36.432Z,99490.00
2019-03-13T09:56:20.471Z,99478.00
2019-03-13T09:59:02.971Z,99476.00
2019-03-13T10:01:52.531Z,99470.00
2019-03-13T10:04:50.569Z,99473.00
2019-03-13T10:07:52.431Z,99470.00
2019-03-13T10:10:32.058Z,99478.00
2019-03-13T10:13:39.702Z,99477.00
2019-03-13T10:16:26.421Z,99449.00
2019-03-13T10:19:19.187Z,99456.00
2019-03-13T10:22:09.762Z,99463.00
2019-03-13T10:24:58.653Z,99475.00
2019-03-13T10:27:54.097Z,99471.00
2019-03-13T10:30:52.092Z,99461.00
2019-03-13T10:33:47.548Z,99464.00
2019-03-13T10:36:29.750Z,99466.00
2019-03-13T10:39:10.894Z,99456.00
2019-03-13T10:42:07.132Z,99439.00
2019-03-13T10:45:15.321Z,99441.00
2019-03-13T10:48:10.100Z,99439.00
2019-03-13T10:51:05.207Z,99446.00
2019-03-13T10:53:52.490Z,99433.00
2019-03-13T10:56:59.710Z,99441.00
2019-03-13T10:59:47.003Z,99436.00
2019-03-13T11:02:31.107Z,99433.00
2019-03-13T11:05:23.116Z,99432.00
2019-03-13T11:08:02.580Z,99436.00
2019-03-13T11:10:47.311Z,99435.00
2019-03-13T11:13:38.561Z,99420.00
2019-03-13T11:16:36.878Z,99427.00
2019-03-13T11:19:19.799Z,99443.00
2019-03-13T11:22:01.678Z,99428.00
2019-03-13T11:25:03.393Z,99429.00
2019-03-13T11:27:52.708Z,99418.00
2019-03-13T11:31:00.366Z,99429.00
2019-03-13T11:33:44.159Z,99419.00
2019-03-13T11:36:35.351Z,99423.00
2019-03-13T11:39:18.901Z,99418.00
2019-03-13T11:42:11.639Z,99397.00
2019-03-13T11:45:04.132Z,99412.00
2019-03-13T11:47:52.287Z,99401.00
2019-03-13T11:50:44.902Z,99391.00
2019-03-13T11:53:37.256Z,99392.00
2019-03-13T11:56:29.496Z,99399.00
2019-03-13T11:59:21.957Z,99409.00
2019-03-13T12:02:04.035Z,99385.00
2019-03-13T12:05:08.211Z,99375.00
2019-03-13T12:07:47.564Z,99372.00
2019-03-13T12:10:30.601Z,99386.00
2019-03-13T12:13:19.149Z,99384.00
2019-03-13T12:15:59.195Z,99379.00
2019-03-13T12:18:54.475Z,99363.00
2019-03-13T12:21:44.156Z,99348.00
2019-03-13T12:24:35.434Z,99353.00
2019-03-13T12:27:33.764Z,99336.00
2019-03-13T12:30:47.421Z,99350.00
2019-03-13T12:33:52.212Z,99351.00
2019-03-13T12:37:02.647Z,99354.00
2019-03-13T12:39:54.005Z,99327.00
2019-03-13T12:42:46.482Z,99333.00
2019-03-13T12:45:38.938Z,99327.00
2019-03-13T12:48:22.451Z,99317.00
2019-03-13T12:51:14.054Z,99307.00
2019-03-13T12:54:08.086Z,99317.00
2019-03-13T12:57:03.781Z,99298.00
2019-03-13T13:00:08.427Z,99305.00
2019-03-13T13:03:09.726Z,99316.00
2019-03-13T13:05:55.045Z,99312.00
2019-03-13T13:08:46.968Z,99296.00
2019-03-13T13:11:39.441Z,99313.00
2019-03-13T13:14:23.873Z,99296.00
2019-03-13T13:17:31.273Z,99299.00
2019-03-13T13:20:05.854Z,99295.00
2019-03-13T13:22:39.843Z,99306.00
2019-03-13T13:25:13.233Z,99294.00
2019-03-13T13:27:46.068Z,99287.00
2019-03-13T13:30:19.637Z,99297.00
2019-03-13T13:32:52.469Z,99298.00
2019-03-13T13:35:25.403Z,99305.00
2019-03-13T13:37:58.238Z,99282.00
2019-03-13T13:40:31.180Z,99300.00
2019-03-13T13:43:04.784Z,99296.00
2019-03-13T13:45:41.679Z,99293.00
2019-03-13T13:48:14.609Z,99309.00
2019-03-13T13:50:48.086Z,99299.00
2019-03-13T13:53:20.961Z,99290.00
2019-03-13T13:55:54.243Z,99290.00
2019-03-13T13:58:28.636Z,99278.00
2019-03-13T14:01:04.397Z,99279.00
2019-03-13T14:03:38.408Z,99269.00
2019-03-13T14:06:11.378Z,99271.00
2019-03-13T14:08:44.482Z,99287.00
2019-03-13T14:11:17.393Z,99277.00
2019-03-13T14:13:50.452Z,99283.00
2019-03-13T14:16:23.367Z,99284.00
2019-03-13T14:18:56.219Z,99279.00
2019-03-13T14:21:29.140Z,99267.00
2019-03-13T14:24:02.326Z,99283.00
2019-03-13T14:26:35.276Z,99279.00
2019-03-13T14:29:08.122Z,99296.00
2019-03-13T14:31:41.010Z,99298.00
2019-03-13T14:34:13.888Z,99295.00
2019-03-13T14:36:46.779Z,99292.00
2019-03-13T14:39:19.679Z,99290.00
2019-03-13T14:41:52.591Z,99279.00
2019-03-13T14:44:25.422Z,99280.00
2019-03-13T14:46:58.368Z,99272.00
2019-03-13T14:49:31.240Z,99280.00
2019-03-13T14:52:04.122Z,99267.00
2019-03-13T14:54:36.991Z,99294.00
2019-03-13T14:57:09.829Z,99276.00
2019-03-13T14:59:42.767Z,99283.00
2019-03-13T15:02:15.675Z,99268.00
2019-03-13T15:04:48.519Z,99278.00
2019-03-13T15:07:22.295Z,99268.00
2019-03-13T15:09:55.168Z,99256.00
2019-03-13T15:12:28.093Z,99243.00
2019-03-13T15:15:00.955Z,99272.00
2019-03-13T15:17:33.838Z,99277.00
2019-03-13T15:20:13.422Z,99270.00
2019-03-13T15:22:46.749Z,99273.00
2019-03-13T15:25:19.910Z,99253.00
2019-03-13T15:27:52.757Z,99266.00
2019-03-13T15:30:25.811Z,99255.00
2019-03-13T15:32:58.716Z,99259.00
2019-03-13T15:35:31.620Z,99265.00
2019-03-13T15:38:05.642Z,99258.00
2019-03-13T15:40:38.488Z,99258.00
2019-03-13T15:43:11.657Z,99260.00
2019-03-13T15:45:44.619Z,99265.00
2019-03-13T15:48:17.502Z,99252.00
2019-03-13T15:50:50.363Z,99250.00
2019-03-13T15:53:23.265Z,99266.00
2019-03-13T15:55:56.215Z,99262.00
2019-03-13T15:58:29.256Z,99254.00
2019-03-13T16:01:04.849Z,99259.00
2019-03-13T16:03:37.727Z,99264.00
2019-03-13T16:06:10.610Z,99261.00
2019-03-13T16:08:43.460Z,99265.00
2019-03-13T16:11:16.351Z,99260.00
2019-03-13T16:13:49.289Z,99257.00
2019-03-13T16:16:22.174Z,99251.00
2019-03-13T16:18:55.089Z,99260.00
2019-03-13T16:21:27.938Z,99265.00
2019-03-13T16:24:00.827Z,99262.00
2019-03-13T16:26:33.677Z,99256.00
2019-03-13T16:29:06.691Z,99265.00
2019-03-13T16:31:39.550Z,99258.00
2019-03-13T16:34:12.461Z,99263.00
2019-03-13T16:36:45.342Z,99271.00
2019-03-13T16:39:18.262Z,99258.00
2019-03-13T16:41:51.213Z,99266.00
2019-03-13T16:44:24.334Z,99278.00
2019-03-13T16:46:57.184Z,99277.00
2019-03-13T16:49:30.206Z,99267.00
2019-03-13T16:52:03.212Z,99265.00
2019-03-13T16:54:36.101Z,99273.00
2019-03-13T16:57:09.105Z,99270.00
2019-03-13T16:59:42.010Z,99274.00
2019-03-13T17:02:14.958Z,99272.00
2019-03-13T17:04:47.862Z,99272.00
2019-03-13T17:07:20.769Z,99257.00
2019-03-13T17:09:53.705Z,99252.00
2019-03-13T17:12:26.580Z,99259.00
2019-03-13T17:14:59.695Z,99250.00
2019-03-13T17:17:32.584Z,99246.00
2019-03-13T17:20:09.361Z,99256.00
2019-03-13T17:22:43.996Z,99258.00
2019-03-13T17:25:17.978Z,99254.00
2019-03-13T17:27:50.950Z,99251.00
2019-03-13T17:30:24.978Z,99269.00
2019-03-13T17:32:58.047Z,99261.00
2019-03-13T17:35:30.983Z,99252.00
2019-03-13T17:38:03.851Z,99266.00
2019-03-13T17:40:37.473Z,99267.00
2019-03-13T17:43:10.328Z,99277.00
2019-03-13T17:45:43.266Z,99239.00
2019-03-13T17:48:16.117Z,99277.00
2019-03-13T17:50:49.040Z,99274.00
2019-03-13T17:53:22.053Z,99290.00
2019-03-13T17:55:55.072Z,99285.00
2019-03-13T17:58:28.026Z,99283.00
2019-03-13T18:01:00.940Z,99280.00
2019-03-13T18:03:33.941Z,99299.00
2019-03-13T18:06:07.090Z,99297.00
2019-03-13T18:08:39.962Z,99311.00
2019-03-13T18:11:12.880Z,99327.00
2019-03-13T18:13:45.765Z,99315.00
2019-03-13T18:16:18.839Z,99308.00
2019-03-13T18:18:51.737Z,99309.00
2019-03-13T18:21:24.753Z,99316.00
2019-03-13T18:23:57.644Z,99320.00
2019-03-13T18:26:30.743Z,99341.00
2019-03-13T18:29:03.699Z,99338.00
2019-03-13T18:31:36.719Z,99328.00
2019-03-13T18:34:09.638Z,99330.00
2019-03-13T18:36:51.890Z,99357.00
2019-03-13T18:39:24.756Z,99357.00
2019-03-13T18:41:57.697Z,99370.00
2019-03-13T18:44:30.664Z,99385.00
2019-03-13T18:47:03.737Z,99400.00
2019-03-13T18:49:36.846Z,99438.00
2019-03-13T18:52:10.031Z,99418.00
2019-03-13T18:54:43.462Z,99432.00
2019-03-13T18:57:16.773Z,99419.00
2019-03-13T18:59:51.150Z,99423.00
2019-03-13T19:02:24.220Z,99412.00
2019-03-13T19:04:57.748Z,99401.00
2019-03-13T19:07:31.556Z,99380.00
2019-03-13T19:10:05.489Z,99377.00
2019-03-13T19:12:40.711Z,99379.00
2019-03-13T19:15:19.287Z,99390.00
2019-03-13T19:17:51.575Z,99397.00
2019-03-13T19:20:25.938Z,99388.00
2019-03-13T19:22:58.984Z,99381.00
2019-03-13T19:25:31.967Z,99416.00
2019-03-13T19:28:04.824Z,99429.00
2019-03-13T19:30:38.266Z,99426.00
2019-03-13T19:33:11.591Z,99438.00
2019-03-13T19:35:44.603Z,99439.00
2019-03-13T19:38:17.774Z,99442.00
2019-03-13T19:40:50.692Z,99452.00
2019-03-13T19:43:23.597Z,99456.00
2019-03-13T19:45:56.893Z,99451.00
2019-03-13T19:48:29.917Z,99449.00
2019-03-13T19:51:03.163Z,99444.00
2019-03-13T19:53:36.218Z,99442.00
2019-03-13T19:56:09.161Z,99444.00
2019-03-13T19:58:42.053Z,99449.00
2019-03-13T20:01:14.976Z,99448.00
2019-03-13T20:03:55.149Z,99450.00
2019-03-13T20:06:22.776Z,99453.00
2019-03-13T20:08:55.864Z,99449.00
2019-03-13T20:11:28.863Z,99449.00
2019-03-13T20:14:02.154Z,99436.00
2019-03-13T20:16:36.056Z,99455.00
2019-03-13T20:19:09.125Z,99438.00
2019-03-13T20:21:42.152Z,99437.00
2019-03-13T20:24:15.270Z,99439.00
2019-03-13T20:26:48.311Z,99441.00
2019-03-13T20:29:21.483Z,99463.00
2019-03-13T20:31:54.461Z,99459.00
2019-03-13T20:34:27.616Z,99467.00
2019-03-13T20:37:00.779Z,99457.00
2019-03-13T20:39:34.050Z,99465.00
2019-03-13T20:42:07.169Z,99486.00
2019-03-13T20:44:40.203Z,99480.00
2019-03-13T20:47:13.166Z,99487.00
2019-03-13T20:49:46.089Z,99493.00
2019-03-13T20:52:18.983Z,99495.00
2019-03-13T20:54:51.866Z,99505.00
2019-03-13T20:57:25.265Z,99511.00
2019-03-13T20:59:58.172Z,99520.00
2019-03-13T21:02:32.392Z,99511.00
2019-03-13T21:05:05.535Z,99515.00
2019-03-13T21:07:38.750Z,99516.00
2019-03-13T21:10:13.238Z,99503.00
2019-03-13T21:12:46.317Z,99516.00
2019-03-13T21:15:19.347Z,99518.00
2019-03-13T21:17:52.492Z,99520.00
2019-03-13T21:20:26.527Z,99527.00
2019-03-13T21:22:59.570Z,99518.00
2019-03-13T21:25:32.468Z,99518.00
2019-03-13T21:28:05.384Z,99536.00
2019-03-13T21:30:38.266Z,99553.00
2019-03-13T21:33:11.213Z,99539.00
2019-03-13T21:35:44.185Z,99544.00
2019-03-13T21:38:17.326Z,99546.00
2019-03-13T21:40:50.279Z,99538.00
2019-03-13T21:43:23.580Z,99565.00
2019-03-13T21:45:56.747Z,99557.00
2019-03-13T21:48:29.833Z,99561.00
2019-03-13T21:51:02.757Z,99560.00
2019-03-13T21:53:35.640Z,99568.00
2019-03-13T21:56:09.259Z,99570.00
2019-03-13T21:58:42.295Z,99570.00
2019-03-13T22:01:20.136Z,99573.00
2019-03-13T22:03:50.707Z,99582.00
2019-03-13T22:06:28.696Z,99582.00
2019-03-13T22:08:58.630Z,99565.00
2019-03-13T22:11:31.513Z,99569.00
2019-03-13T22:14:04.417Z,99555.00
2019-03-13T22:16:37.331Z,99557.00
2019-03-13T22:19:10.290Z,99561.00
2019-03-13T22:21:43.292Z,99549.00
2019-03-13T22:24:16.193Z,99567.00
2019-03-13T22:26:49.232Z,99555.00
2019-03-13T22:29:22.084Z,99582.00
2019-03-13T22:31:54.934Z,99591.00
2019-03-13T22:34:27.780Z,99594.00
2019-03-13T22:37:00.635Z,99606.00
2019-03-13T22:39:33.476Z,99609.00
2019-03-13T22:42:06.453Z,99603.00
2019-03-13T22:44:39.373Z,99593.00
2019-03-13T22:47:12.249Z,99594.00
2019-03-13T22:49:45.096Z,99591.00
2019-03-13T22:52:18.064Z,99593.00
2019-03-13T22:54:50.881Z,99602.00
2019-03-13T22:57:23.733Z,99600.00
2019-03-13T22:59:56.579Z,99598.00
2019-03-13T23:02:29.516Z,99606.00
2019-03-13T23:05:02.408Z,99610.00
2019-03-13T23:07:37.199Z,99609.00
2019-03-13T23:10:28.732Z,99606.00
2019-03-13T23:13:01.593Z,99604.00
2019-03-13T23:15:34.583Z,99613.00
2019-03-13T23:18:07.407Z,99625.00
2019-03-13T23:20:40.232Z,99617.00
2019-03-13T23:23:13.080Z,99622.00
2019-03-13T23:25:46.077Z,99616.00
2019-03-13T23:28:19.009Z,99621.00
2019-03-13T23:30:51.848Z,99620.00
2019-03-13T23:33:24.723Z,99630.00
2019-03-13T23:35:57.587Z,99633.00
2019-03-13T23:38:30.422Z,99622.00
2019-03-13T23:41:03.467Z,99628.00
2019-03-13T23:43:36.435Z,99640.00
2019-03-13T23:46:09.321Z,99632.00
2019-03-13T23:48:42.130Z,99643.00
2019-03-13T23:51:14.948Z,99639.00
2019-03-13T23:53:48.853Z,99635.00
2019-03-13T23:56:21.683Z,99636.00
2019-03-13T23:58:54.541Z,99641.00
